Time;durP1;ratioP1;P1;durP2;ratioP2;P2;SDS_P1;SDS_P2;PMS_P1;PMS_P2;Temp;Humidity;BMP_temperature;BMP_pressure;BME280_temperature;BME280_humidity;BME280_pressure;Samples;Min_cycle;Max_cycle;Signal;HPM_P1;HPM_P2
2021/07/02 00:01:15;;;;;;;24.47;17.97;;;;;;;-144.99;100.00;52407.31;5066479;28;20209;-61
2021/07/02 00:03:42;;;;;;;26.93;15.23;;;;;;;-144.99;100.00;52386.94;5066639;28;20221;-61
2021/07/02 00:06:09;;;;;;;21.17;16.07;;;;;;;-144.99;100.00;52399.19;5076460;28;20216;-60
2021/07/02 00:08:35;;;;;;;18.87;14.77;;;;;;;-144.99;100.00;52411.41;5065551;28;20236;-60
2021/07/02 00:11:04;;;;;;;20.73;15.20;;;;;;;-144.99;100.00;52435.88;5065909;28;20212;-62
2021/07/02 00:13:30;;;;;;;23.87;14.67;;;;;;;-144.99;100.00;52419.56;5066031;28;20700;-60
2021/07/02 00:15:57;;;;;;;21.00;16.40;;;;;;;-144.99;100.00;52427.72;5066169;28;20225;-61
2021/07/02 00:18:23;;;;;;;23.97;14.43;;;;;;;-144.99;100.00;52362.50;5084705;28;20215;-61
2021/07/02 00:20:50;;;;;;;19.70;13.93;;;;;;;-144.99;100.00;52413.44;4726315;28;10000464;-61
2021/07/02 00:23:16;;;;;;;24.50;17.53;;;;;;;-144.99;100.00;52391.03;5085840;28;20219;-61
2021/07/02 00:25:43;;;;;;;17.53;13.77;;;;;;;-144.99;100.00;52370.63;5070566;28;20224;-61
2021/07/02 00:28:11;;;;;;;18.70;14.17;;;;;;;-144.99;100.00;52419.56;5066374;28;20212;-61
2021/07/02 00:30:37;;;;;;;22.43;15.23;;;;;;;-144.99;100.00;52435.88;5078160;28;20228;-59
2021/07/02 00:33:04;;;;;;;21.20;16.33;;;;;;;-144.99;100.00;52395.09;5067416;28;20208;-61
2021/07/02 00:35:30;;;;;;;20.60;13.47;;;;;;;-144.99;100.00;52427.72;5068320;28;20216;-61
2021/07/02 00:37:57;;;;;;;25.07;15.30;;;;;;;-144.99;100.00;52407.31;5068627;28;20213;-61
2021/07/02 00:40:24;;;;;;;28.83;13.93;;;;;;;-144.99;100.00;52407.31;5081363;28;20221;-60
2021/07/02 00:42:50;;;;;;;19.93;11.97;;;;;;;-144.99;100.00;52431.78;5074533;28;20220;-60
2021/07/02 00:45:18;;;;;;;21.87;14.83;;;;;;;-144.99;100.00;52427.72;5070265;28;20208;-61
2021/07/02 00:47:45;;;;;;;21.40;13.33;;;;;;;-144.99;100.00;52399.19;5072258;28;20216;-61
2021/07/02 00:50:13;;;;;;;18.90;12.20;;;;;;;-144.99;100.00;52407.31;5071523;28;20328;-60
2021/07/02 00:52:40;;;;;;;20.77;12.03;;;;;;;-144.99;100.00;52431.78;5081236;28;20211;-60
2021/07/02 00:55:07;;;;;;;19.57;13.23;;;;;;;-144.99;100.00;52423.63;5089622;28;20208;-61
2021/07/02 00:57:36;;;;;;;21.27;11.80;;;;;;;-144.99;100.00;52378.78;5075032;28;20359;-61
2021/07/02 01:00:05;;;;;;;17.27;11.43;;;;;;;-144.99;100.00;52407.31;5074736;28;20949;-60
2021/07/02 01:02:33;;;;;;;18.80;11.13;;;;;;;-144.99;100.00;52395.09;5072245;28;20220;-62
2021/07/02 01:05:00;;;;;;;15.87;11.80;;;;;;;-144.99;100.00;52448.09;5073731;28;20209;-63
2021/07/02 01:07:27;;;;;;;21.03;12.27;;;;;;;-144.99;100.00;52419.56;5080294;28;20614;-63
2021/07/02 01:09:54;;;;;;;18.90;11.80;;;;;;;-144.99;100.00;52452.16;5071797;28;20244;-63
2021/07/02 01:12:20;;;;;;;18.63;12.07;;;;;;;-144.99;100.00;52395.09;5085483;28;20215;-63
2021/07/02 01:14:47;;;;;;;18.97;10.87;;;;;;;-144.99;100.00;52448.09;5091792;28;20204;-63
2021/07/02 01:17:13;;;;;;;23.10;11.97;;;;;;;-144.99;100.00;52382.88;5084662;28;20277;-63
2021/07/02 01:19:47;;;;;;;16.17;11.80;;;;;;;-144.99;100.00;52439.94;5071796;28;20227;-63
2021/07/02 01:22:21;;;;;;;21.07;12.33;;;;;;;-144.99;100.00;52403.25;5087911;28;20208;-64
2021/07/02 01:24:48;;;;;;;15.30;9.57;;;;;;;-144.99;100.00;52444.03;5071816;28;20274;-64
2021/07/02 01:27:15;;;;;;;22.20;11.43;;;;;;;-144.99;100.00;52423.63;5071600;28;20209;-64
2021/07/02 01:29:42;;;;;;;16.30;10.73;;;;;;;-144.99;100.00;52435.88;5083687;28;20224;-64
2021/07/02 01:32:10;;;;;;;18.87;12.30;;;;;;;-144.99;100.00;52431.78;5077156;28;20514;-65
2021/07/02 01:34:37;;;;;;;17.87;11.00;;;;;;;-144.99;100.00;52395.09;5070987;28;20265;-64
2021/07/02 01:37:04;;;;;;;14.17;11.00;;;;;;;-144.99;100.00;52448.09;5071822;28;20251;-63
2021/07/02 01:39:32;;;;;;;13.60;9.40;;;;;;;-144.99;100.00;52427.72;5078339;28;20228;-64
2021/07/02 01:41:59;;;;;;;21.00;14.00;;;;;;;-144.99;100.00;52423.63;5076593;28;20418;-61
2021/07/02 01:44:26;;;;;;;17.53;11.57;;;;;;;-144.99;100.00;52391.03;5071820;28;20240;-63
2021/07/02 01:46:52;;;;;;;17.40;10.50;;;;;;;-144.99;100.00;52435.88;5082694;28;20261;-62
2021/07/02 01:49:19;;;;;;;17.47;12.63;;;;;;;-144.99;100.00;52395.09;5071102;28;20232;-62
2021/07/02 01:51:46;;;;;;;17.57;12.07;;;;;;;-144.99;100.00;52439.94;5072486;28;20217;-59
2021/07/02 01:54:12;;;;;;;20.47;12.17;;;;;;;-144.99;100.00;52468.47;5084219;28;20211;-58
2021/07/02 01:56:47;;;;;;;16.47;11.30;;;;;;;-144.99;100.00;52439.94;5078769;28;20215;-58
2021/07/02 01:59:14;;;;;;;18.07;13.17;;;;;;;-144.99;100.00;52415.47;5084444;28;20251;-59
2021/07/02 02:01:41;;;;;;;20.67;11.97;;;;;;;-144.99;100.00;52439.94;5081634;28;20230;-61
2021/07/02 02:04:07;;;;;;;17.53;12.07;;;;;;;-144.99;100.00;52421.59;5070491;28;20217;-62
2021/07/02 02:06:34;;;;;;;20.30;10.10;;;;;;;-144.99;100.00;52456.25;5069954;28;20755;-59
2021/07/02 02:09:00;;;;;;;21.90;14.53;;;;;;;-144.99;100.00;52407.31;5069872;28;20234;-58
2021/07/02 02:11:28;;;;;;;28.13;10.87;;;;;;;-144.99;100.00;52444.03;5070464;28;20218;-58
2021/07/02 02:13:55;;;;;;;15.50;11.30;;;;;;;-144.99;100.00;52452.16;5070464;28;20281;-58
2021/07/02 02:16:22;;;;;;;17.53;10.97;;;;;;;-144.99;100.00;52439.94;5071132;28;20227;-58
2021/07/02 02:18:49;;;;;;;13.60;10.57;;;;;;;-144.99;100.00;52391.03;5072183;28;20247;-58
2021/07/02 02:21:15;;;;;;;28.03;11.33;;;;;;;-144.99;100.00;52384.91;5085234;28;20204;-57
2021/07/02 02:23:42;;;;;;;19.90;14.63;;;;;;;-144.99;100.00;52450.13;5079046;28;20208;-60
2021/07/02 02:26:08;;;;;;;20.53;11.17;;;;;;;-144.99;100.00;52415.47;5070282;28;20216;-61
2021/07/02 02:28:35;;;;;;;25.97;9.73;;;;;;;-144.99;100.00;52427.72;5070213;28;20734;-61
2021/07/02 02:31:03;;;;;;;19.50;11.60;;;;;;;-144.99;100.00;52484.78;5074257;28;20221;-61
2021/07/02 02:33:30;;;;;;;15.50;10.07;;;;;;;-144.99;100.00;52464.41;5070298;28;20208;-63
2021/07/02 02:35:58;;;;;;;22.50;10.50;;;;;;;-144.99;100.00;52444.03;5069527;28;20294;-60
2021/07/02 02:38:24;;;;;;;15.30;10.37;;;;;;;-144.99;100.00;52425.66;5070454;28;20216;-61
2021/07/02 02:40:51;;;;;;;17.67;9.87;;;;;;;-144.99;100.00;52435.88;5083075;28;20238;-61
2021/07/02 02:43:17;;;;;;;18.53;10.67;;;;;;;-144.99;100.00;52419.56;5075526;28;20222;-61
2021/07/02 02:45:44;;;;;;;18.13;11.50;;;;;;;-144.99;100.00;52435.88;5069728;28;20575;-61
2021/07/02 02:48:12;;;;;;;22.50;10.70;;;;;;;-144.99;100.00;52448.09;5069922;28;20243;-61
2021/07/02 02:50:38;;;;;;;22.50;11.17;;;;;;;-144.99;100.00;52439.94;5069118;28;20237;-62
2021/07/02 02:53:05;;;;;;;19.13;12.77;;;;;;;-144.99;100.00;52431.78;5083041;28;20237;-61
2021/07/02 02:55:31;;;;;;;20.83;10.43;;;;;;;-144.99;100.00;52407.31;5083216;28;20215;-61
2021/07/02 02:57:58;;;;;;;18.03;11.00;;;;;;;-144.99;100.00;52399.19;5075109;28;20207;-61
2021/07/02 03:00:25;;;;;;;17.07;12.40;;;;;;;-144.99;100.00;52403.25;5069985;28;20237;-62
2021/07/02 03:02:51;;;;;;;22.17;14.63;;;;;;;-144.99;100.00;52439.94;5069399;28;20207;-62
2021/07/02 03:05:19;;;;;;;15.03;10.17;;;;;;;-144.99;100.00;52476.63;5076652;28;20575;-62
2021/07/02 03:07:46;;;;;;;19.60;10.20;;;;;;;-144.99;100.00;52427.72;5089365;28;20218;-62
2021/07/02 03:10:13;;;;;;;17.67;10.60;;;;;;;-144.99;100.00;52421.59;5088683;28;20239;-62
2021/07/02 03:12:40;;;;;;;20.93;9.73;;;;;;;-144.99;100.00;52403.25;5089221;28;20212;-62
2021/07/02 03:15:07;;;;;;;21.57;10.40;;;;;;;-144.99;100.00;52407.31;5090110;28;20213;-62
2021/07/02 03:17:34;;;;;;;17.20;11.33;;;;;;;-144.99;100.00;52391.03;5087833;28;20205;-61
2021/07/02 03:20:00;;;;;;;19.70;9.93;;;;;;;-144.99;100.00;52417.53;5074230;28;20304;-62
2021/07/02 03:22:28;;;;;;;17.33;8.70;;;;;;;-144.99;100.00;52435.88;5087664;28;20219;-62
2021/07/02 03:24:55;;;;;;;24.30;9.87;;;;;;;-144.99;100.00;52419.56;5079312;28;20596;-61
2021/07/02 03:27:21;;;;;;;19.67;10.73;;;;;;;-144.99;100.00;52448.09;5069839;28;20211;-63
2021/07/02 03:29:48;;;;;;;21.90;10.30;;;;;;;-144.99;100.00;52448.09;5070283;28;20233;-61
2021/07/02 03:32:15;;;;;;;11.30;8.60;;;;;;;-144.99;100.00;52391.03;5068879;28;20247;-61
2021/07/02 03:34:44;;;;;;;18.27;10.10;;;;;;;-144.99;100.00;52423.63;5068945;28;20778;-60
2021/07/02 03:37:10;;;;;;;18.63;10.53;;;;;;;-144.99;100.00;52423.63;5068812;28;20218;-61
2021/07/02 03:39:38;;;;;;;19.67;9.27;;;;;;;-144.99;100.00;52423.63;5069809;28;20248;-62
2021/07/02 03:42:05;;;;;;;18.90;10.53;;;;;;;-144.99;100.00;52441.97;5069229;28;20220;-62
2021/07/02 03:44:32;;;;;;;17.67;10.13;;;;;;;-144.99;100.00;52415.47;5069621;28;20204;-62
2021/07/02 03:46:58;;;;;;;12.03;9.13;;;;;;;-144.99;100.00;52393.06;5069094;28;20693;-59
2021/07/02 03:49:25;;;;;;;15.10;9.57;;;;;;;-144.99;100.00;52444.03;5069294;28;20265;-60
2021/07/02 03:51:51;;;;;;;21.20;8.73;;;;;;;-144.99;100.00;52407.31;5079473;28;20237;-59
2021/07/02 03:54:18;;;;;;;15.43;10.03;;;;;;;-144.99;100.00;52448.09;5081173;28;20228;-58
2021/07/02 03:59:26;;;;;;;21.50;10.97;;;;;;;-144.99;100.00;52411.41;5083433;28;20264;-58
2021/07/02 04:01:53;;;;;;;14.73;10.17;;;;;;;-144.99;100.00;52439.94;5079115;28;20204;-58
2021/07/02 04:04:19;;;;;;;18.13;10.17;;;;;;;-144.99;100.00;52427.72;5081767;28;20221;-59
2021/07/02 04:06:46;;;;;;;23.23;12.00;;;;;;;-144.99;100.00;52435.88;5069566;28;20222;-59
2021/07/02 04:09:12;;;;;;;18.53;11.97;;;;;;;-144.99;100.00;52403.25;5073594;28;20246;-58
2021/07/02 04:11:39;;;;;;;25.63;10.30;;;;;;;-144.99;100.00;52435.88;5077053;28;20229;-60
2021/07/02 04:14:07;;;;;;;19.13;10.53;;;;;;;-144.99;100.00;52415.47;5068587;28;20668;-58
2021/07/02 04:16:34;;;;;;;16.97;10.73;;;;;;;-144.99;100.00;52452.16;5071973;28;20218;-59
2021/07/02 04:19:00;;;;;;;15.87;10.50;;;;;;;-144.99;100.00;52437.91;5069338;28;20239;-60
2021/07/02 04:21:27;;;;;;;16.50;10.23;;;;;;;-144.99;100.00;52403.25;5088829;28;20223;-59
2021/07/02 04:23:54;;;;;;;24.27;13.43;;;;;;;-144.99;100.00;52427.72;5080344;28;20202;-62
2021/07/02 04:26:20;;;;;;;18.40;11.63;;;;;;;-144.99;100.00;52435.88;5072791;28;20225;-62
2021/07/02 04:28:47;;;;;;;16.80;9.60;;;;;;;-144.99;100.00;52444.03;5080141;28;20235;-62
2021/07/02 04:31:15;;;;;;;20.40;12.67;;;;;;;-144.99;100.00;52409.38;5079530;28;20265;-62
2021/07/02 04:33:41;;;;;;;20.17;11.67;;;;;;;-144.99;100.00;52407.31;5072730;28;20221;-62
2021/07/02 04:36:08;;;;;;;21.50;10.90;;;;;;;-144.99;100.00;52384.91;5071905;28;20702;-60
2021/07/02 04:38:34;;;;;;;14.23;11.27;;;;;;;-144.99;100.00;52421.59;5072099;28;20266;-60
2021/07/02 04:41:01;;;;;;;20.60;12.83;;;;;;;-144.99;100.00;52456.25;5085296;28;20211;-60
2021/07/02 04:43:27;;;;;;;22.73;13.07;;;;;;;-144.99;100.00;52423.63;5077312;28;20218;-61
2021/07/02 04:45:54;;;;;;;20.33;12.17;;;;;;;-144.99;100.00;52382.88;5072335;28;20220;-60
2021/07/02 04:48:22;;;;;;;16.43;11.13;;;;;;;-144.99;100.00;52399.19;5072886;28;20218;-61
2021/07/02 04:50:49;;;;;;;18.63;10.90;;;;;;;-144.99;100.00;52429.75;5071833;28;20323;-59
2021/07/02 04:53:17;;;;;;;22.97;11.03;;;;;;;-144.99;100.00;52411.41;5085646;28;20211;-60
2021/07/02 04:55:44;;;;;;;14.27;10.43;;;;;;;-144.99;100.00;52399.19;5088354;28;20208;-59
2021/07/02 04:58:11;;;;;;;24.93;14.47;;;;;;;-144.99;100.00;52391.03;5090348;28;20214;-59
2021/07/02 05:00:38;;;;;;;23.67;11.10;;;;;;;-144.99;100.00;52391.03;5071969;28;20580;-61
2021/07/02 05:03:05;;;;;;;16.90;12.43;;;;;;;-144.99;100.00;52407.31;5072354;28;20244;-61
2021/07/02 05:05:33;;;;;;;14.00;12.07;;;;;;;-144.99;100.00;52415.47;5072090;28;20205;-61
2021/07/02 05:08:00;;;;;;;18.27;10.77;;;;;;;-144.99;100.00;52419.56;5072241;28;20204;-60
2021/07/02 05:10:27;;;;;;;13.77;10.73;;;;;;;-144.99;100.00;52395.09;5071600;28;20235;-60
2021/07/02 05:12:54;;;;;;;19.67;12.13;;;;;;;-144.99;100.00;52417.53;5072045;28;20228;-59
2021/07/02 05:15:21;;;;;;;20.60;12.77;;;;;;;-144.99;100.00;52415.47;5072009;28;20218;-59
2021/07/02 05:17:48;;;;;;;17.93;11.70;;;;;;;-144.99;100.00;52427.72;5080750;28;20213;-63
2021/07/02 05:20:16;;;;;;;18.57;10.97;;;;;;;-144.99;100.00;52354.34;5077803;28;20646;-63
2021/07/02 05:22:44;;;;;;;19.97;11.70;;;;;;;-144.99;100.00;52399.19;5084459;28;20682;-60
2021/07/02 05:25:10;;;;;;;14.90;10.23;;;;;;;-144.99;100.00;52380.84;5079835;28;20670;-60
2021/07/02 05:27:38;;;;;;;17.67;11.13;;;;;;;-144.99;100.00;52407.31;5071858;28;20254;-60
2021/07/02 05:30:06;;;;;;;26.60;10.70;;;;;;;-144.99;100.00;52391.03;5072501;28;20228;-60
2021/07/02 05:32:32;;;;;;;16.43;10.73;;;;;;;-144.99;100.00;52407.31;5070346;28;20227;-61
2021/07/02 05:34:59;;;;;;;14.20;10.57;;;;;;;-144.99;100.00;52452.16;5071482;28;20204;-62
2021/07/02 05:37:25;;;;;;;14.73;9.77;;;;;;;-144.99;100.00;52399.19;5071094;28;20235;-61
2021/07/02 05:39:54;;;;;;;17.00;9.57;;;;;;;-144.99;100.00;52413.44;5072149;28;20229;-61
2021/07/02 05:42:24;;;;;;;20.60;11.63;;;;;;;-144.99;100.00;52431.78;5071797;28;20296;-61
2021/07/02 05:44:51;;;;;;;18.70;11.90;;;;;;;-144.99;100.00;52395.09;5071979;28;20254;-61
2021/07/02 05:47:17;;;;;;;18.77;9.80;;;;;;;-144.99;100.00;52397.13;5070722;28;20726;-62
2021/07/02 05:49:44;;;;;;;19.33;10.37;;;;;;;-144.99;100.00;52395.09;5070838;28;20328;-62
2021/07/02 05:52:11;;;;;;;14.47;9.03;;;;;;;-144.99;99.92;52362.50;5075989;28;20223;-62
2021/07/02 05:54:37;;;;;;;14.63;10.87;;;;;;;-144.99;99.42;52370.63;5093072;28;20540;-59
2021/07/02 05:57:05;;;;;;;14.93;9.13;;;;;;;-144.99;98.93;52380.84;5080065;28;20208;-61
2021/07/02 05:59:32;;;;;;;20.97;12.03;;;;;;;-144.99;98.19;52358.41;5088608;28;20240;-60
2021/07/02 06:01:58;;;;;;;16.57;11.83;;;;;;;-144.99;98.46;52354.34;5080101;28;20205;-61
2021/07/02 06:04:25;;;;;;;20.07;14.83;;;;;;;-144.99;98.80;52391.03;5070640;28;20216;-60
2021/07/02 06:06:52;;;;;;;20.27;14.57;;;;;;;-144.99;98.70;52407.31;5071322;28;20216;-61
2021/07/02 06:09:18;;;;;;;21.00;12.50;;;;;;;-144.99;98.72;52399.19;5070853;28;20319;-61
2021/07/02 06:11:45;;;;;;;16.37;11.50;;;;;;;-144.99;98.14;52413.44;5071689;28;20235;-61
2021/07/02 06:14:13;;;;;;;18.17;10.97;;;;;;;-144.99;98.58;52366.56;5085091;28;20205;-62
2021/07/02 06:16:39;;;;;;;20.67;13.43;;;;;;;-144.99;98.24;52329.88;5074452;28;20219;-62
2021/07/02 06:19:06;;;;;;;25.50;12.70;;;;;;;-144.99;98.07;52397.13;5071045;28;20313;-62
2021/07/02 06:21:33;;;;;;;22.80;13.37;;;;;;;-144.99;97.66;52403.25;5088115;28;20206;-62
2021/07/02 06:23:59;;;;;;;25.90;15.67;;;;;;;-144.99;96.98;52425.66;5078621;28;20661;-61
2021/07/02 06:26:26;;;;;;;17.00;13.23;;;;;;;-144.99;96.98;52362.50;5070814;28;20220;-64
2021/07/02 06:28:52;;;;;;;17.13;12.40;;;;;;;-144.99;95.84;52342.09;5070160;28;20229;-61
2021/07/02 06:31:20;;;;;;;24.83;17.00;;;;;;;-144.99;95.42;52382.88;5075781;28;20225;-60
2021/07/02 06:33:47;;;;;;;19.40;10.63;;;;;;;-144.99;95.13;52403.25;5070663;28;20224;-60
2021/07/02 06:36:14;;;;;;;12.77;10.23;;;;;;;-144.99;95.21;52378.78;5069853;28;20690;-59
2021/07/02 06:38:40;;;;;;;22.00;11.13;;;;;;;-144.99;93.98;52382.88;5070793;28;20229;-61
2021/07/02 06:41:07;;;;;;;15.63;10.57;;;;;;;-144.99;93.68;52362.50;5083098;28;20613;-59
2021/07/02 06:43:33;;;;;;;13.20;10.00;;;;;;;-144.99;93.56;52407.31;5075640;28;20408;-59
2021/07/02 06:46:00;;;;;;;13.73;11.33;;;;;;;-144.99;92.19;52366.56;5070426;28;20228;-59
2021/07/02 06:48:28;;;;;;;17.07;11.83;;;;;;;-144.99;91.42;52391.03;5070157;28;20212;-59
2021/07/02 06:50:56;;;;;;;16.00;11.00;;;;;;;-144.99;91.61;52362.50;5069371;28;20238;-59
2021/07/02 06:53:22;;;;;;;17.07;11.20;;;;;;;-144.99;91.63;52362.50;5084804;28;20204;-60
2021/07/02 06:55:51;;;;;;;16.50;9.93;;;;;;;-144.99;91.22;52382.88;5086997;28;20211;-58
2021/07/02 06:58:17;;;;;;;16.07;10.40;;;;;;;-144.99;90.93;52354.34;5080025;28;20630;-60
2021/07/02 07:00:44;;;;;;;21.53;10.90;;;;;;;-144.99;88.42;52350.25;5071156;28;20223;-60
2021/07/02 07:03:10;;;;;;;26.80;11.73;;;;;;;-144.99;88.17;52399.19;5070909;28;20214;-63
2021/07/02 07:05:40;;;;;;;17.83;11.27;;;;;;;-144.99;88.63;52342.09;5070580;28;20223;-62
2021/07/02 07:08:08;;;;;;;17.23;10.87;;;;;;;-144.99;88.16;52325.81;5071305;28;20308;-61
2021/07/02 07:10:35;;;;;;;16.33;9.67;;;;;;;-144.99;88.77;52393.06;5070191;28;20224;-61
2021/07/02 07:13:04;;;;;;;19.90;12.50;;;;;;;-144.99;89.24;52350.25;5070432;28;20581;-60
2021/07/02 07:15:31;;;;;;;21.10;10.87;;;;;;;-144.99;88.88;52382.88;5071393;28;20221;-63
2021/07/02 07:17:58;;;;;;;16.80;11.07;;;;;;;-144.99;88.91;52350.25;5081046;28;20216;-66
2021/07/02 07:20:24;;;;;;;14.67;11.57;;;;;;;-144.99;88.67;52333.94;5075797;28;20603;-65
2021/07/02 07:22:52;;;;;;;20.10;11.17;;;;;;;-144.99;88.74;52358.41;5082823;28;20247;-66
2021/07/02 07:25:20;;;;;;;19.23;10.37;;;;;;;-144.99;87.81;52370.63;5077905;28;20237;-65
2021/07/02 07:27:47;;;;;;;18.03;11.57;;;;;;;-144.99;86.08;52386.94;5069405;28;20218;-65
2021/07/02 07:30:15;;;;;;;17.90;10.93;;;;;;;-144.99;84.72;52393.06;5070718;28;20232;-66
2021/07/02 07:32:42;;;;;;;17.00;10.90;;;;;;;-144.99;83.74;52356.38;5069471;28;20705;-65
2021/07/02 07:35:22;;;;;;;12.77;9.77;;;;;;;-144.99;84.11;52350.25;5069521;28;20237;-65
2021/07/02 07:37:52;;;;;;;15.57;9.67;;;;;;;-144.99;84.04;52366.56;5069426;28;20216;-65
2021/07/02 07:40:20;;;;;;;15.80;10.17;;;;;;;-144.99;83.03;52325.81;5069802;28;20797;-65
2021/07/02 07:42:49;;;;;;;16.10;10.47;;;;;;;-144.99;82.78;52382.88;5069812;28;20215;-65
2021/07/02 07:45:16;;;;;;;14.87;8.77;;;;;;;-144.99;82.72;52362.50;5069464;28;20676;-66
2021/07/02 07:47:43;;;;;;;17.23;9.80;;;;;;;-144.99;82.91;52346.19;5069829;28;20512;-62
2021/07/02 07:50:13;;;;;;;14.40;8.90;;;;;;;-144.99;83.14;52354.34;5069331;28;20231;-62
2021/07/02 07:52:45;;;;;;;14.23;8.90;;;;;;;-144.99;81.49;52354.34;5078985;28;20227;-62
2021/07/02 07:55:12;;;;;;;13.07;7.53;;;;;;;-144.99;80.00;52382.88;5080624;28;20692;-62
2021/07/02 07:57:41;;;;;;;13.87;8.47;;;;;;;-144.99;80.35;52309.50;5076684;28;20217;-64
2021/07/02 08:00:08;;;;;;;14.80;8.03;;;;;;;-144.99;77.92;52333.94;5091545;28;20333;-64
2021/07/02 08:02:35;;;;;;;11.10;7.17;;;;;;;-144.99;76.82;52293.19;5076994;28;20445;-62
2021/07/02 08:05:02;;;;;;;15.53;7.57;;;;;;;-144.99;76.43;52317.66;5073698;28;20221;-63
2021/07/02 08:07:34;;;;;;;10.80;7.57;;;;;;;-144.99;76.31;52350.25;5073004;28;20693;-63
2021/07/02 08:10:01;;;;;;;13.70;6.90;;;;;;;-144.99;75.92;52327.84;5073016;28;20733;-63
2021/07/02 08:12:28;;;;;;;15.77;7.60;;;;;;;-144.99;75.61;52313.56;5072982;28;20601;-63
2021/07/02 08:14:56;;;;;;;13.03;7.33;;;;;;;-144.99;74.25;52309.50;5073831;28;20211;-63
2021/07/02 08:17:23;;;;;;;16.27;7.53;;;;;;;-144.99;72.70;52325.81;5077257;28;20234;-63
2021/07/02 08:19:50;;;;;;;12.93;9.70;;;;;;;-144.99;74.09;52323.75;5076205;28;20686;-63
2021/07/02 08:22:16;;;;;;;11.97;8.23;;;;;;;-144.99;75.76;52325.81;5087888;28;20687;-63
2021/07/02 08:24:43;;;;;;;11.17;9.17;;;;;;;-144.99;75.86;52309.50;5080588;28;20242;-62
2021/07/02 08:27:09;;;;;;;14.23;8.37;;;;;;;-144.99;75.98;52348.22;5073545;28;20216;-64
2021/07/02 08:29:35;;;;;;;15.77;9.50;;;;;;;-144.99;76.56;52333.94;5072734;28;20255;-62
2021/07/02 08:32:03;;;;;;;12.73;8.90;;;;;;;-144.99;75.03;52305.41;5073148;28;20228;-62
2021/07/02 08:34:30;;;;;;;13.53;8.17;;;;;;;-144.99;73.03;52374.72;5072759;28;20209;-62
2021/07/02 08:36:57;;;;;;;12.00;6.97;;;;;;;-144.99;73.59;52336.00;5073104;28;20216;-62
2021/07/02 08:39:24;;;;;;;12.07;6.33;;;;;;;-144.99;73.50;52327.84;5078658;28;20677;-62
2021/07/02 08:41:51;;;;;;;10.60;6.57;;;;;;;-144.99;71.65;52329.88;5085697;28;20204;-62
2021/07/02 08:44:18;;;;;;;14.70;6.53;;;;;;;-144.99;71.07;52313.56;5073949;28;20277;-62
2021/07/02 08:46:46;;;;;;;12.03;6.90;;;;;;;-144.99;69.25;52362.50;5083624;28;20578;-63
2021/07/02 08:49:15;;;;;;;9.67;6.50;;;;;;;-144.99;70.53;52319.69;5084313;28;20228;-62
2021/07/02 08:51:42;;;;;;;8.33;6.73;;;;;;;-144.99;68.96;52321.72;5078013;28;20225;-63
2021/07/02 08:54:13;;;;;;;8.70;6.17;;;;;;;-144.99;69.67;52305.41;5088956;28;20239;-62
2021/07/02 08:56:42;;;;;;;19.03;9.27;;;;;;;-144.99;69.09;52260.56;5087856;28;20427;-62
2021/07/02 08:59:08;;;;;;;8.63;5.80;;;;;;;-144.99;67.80;52307.47;5098100;22;20586;-62
2021/07/02 09:01:39;;;;;;;8.47;6.00;;;;;;;-144.99;66.12;52309.50;5080787;28;20267;-61
2021/07/02 09:04:18;;;;;;;14.23;5.30;;;;;;;-144.99;63.28;52301.34;5087861;28;20204;-61
2021/07/02 09:06:45;;;;;;;10.03;6.27;;;;;;;-144.99;63.21;52289.13;5084506;28;20674;-60
2021/07/02 09:09:12;;;;;;;10.60;6.80;;;;;;;-144.99;64.82;52309.50;5077458;28;20310;-62
2021/07/02 09:11:38;;;;;;;10.13;7.13;;;;;;;-144.99;65.16;52301.34;5064225;28;20222;-62
2021/07/02 09:14:06;;;;;;;10.77;6.83;;;;;;;-144.99;65.49;52289.13;5065514;28;20211;-61
2021/07/02 09:16:37;;;;;;;10.60;7.97;;;;;;;-144.99;64.27;52289.13;5067314;28;20211;-60
2021/07/02 09:19:20;;;;;;;11.93;7.33;;;;;;;-144.99;64.85;52289.13;5063785;28;20222;-61
2021/07/02 09:21:47;;;;;;;9.13;5.77;;;;;;;-144.99;65.21;52289.13;5067185;28;20203;-61
2021/07/02 09:24:37;;;;;;;10.43;5.83;;;;;;;-144.99;65.30;52268.72;5067363;28;20678;-62
2021/07/02 09:27:23;;;;;;;9.10;4.83;;;;;;;-144.99;64.21;52297.25;5067702;28;20207;-62
2021/07/02 09:30:01;;;;;;;11.03;5.10;;;;;;;-144.99;63.42;52315.59;5068319;28;20219;-62
2021/07/02 09:32:29;;;;;;;11.63;6.07;;;;;;;-144.99;61.25;52305.41;5065709;28;20235;-61
2021/07/02 09:34:59;;;;;;;9.50;5.40;;;;;;;-144.99;60.50;52309.50;5065805;28;20215;-62
2021/07/02 09:37:28;;;;;;;7.57;5.43;;;;;;;-144.99;60.94;52293.19;5061855;28;20209;-61
2021/07/02 09:39:55;;;;;;;10.37;5.93;;;;;;;-144.99;60.79;52266.69;5061573;28;20225;-61
2021/07/02 09:42:27;;;;;;;10.43;5.67;;;;;;;-144.99;61.38;52280.97;5064605;28;20216;-62
2021/07/02 09:45:05;;;;;;;9.70;5.83;;;;;;;-144.99;59.96;52227.97;5067442;28;20215;-61
2021/07/02 09:47:32;;;;;;;10.17;7.70;;;;;;;-144.99;60.81;52211.66;5064722;28;20211;-61
2021/07/02 09:50:24;;;;;;;9.47;5.93;;;;;;;-144.99;60.88;52264.66;5068218;28;20605;-62
2021/07/02 09:52:53;;;;;;;10.73;6.30;;;;;;;-144.99;60.05;52285.03;5061568;28;20320;-61
2021/07/02 09:55:24;;;;;;;7.43;5.57;;;;;;;-144.99;61.13;52283.00;5066600;28;20676;-62
2021/07/02 09:57:54;;;;;;;11.17;6.63;;;;;;;-144.99;61.09;52317.66;5067077;28;20576;-62
2021/07/02 10:00:21;;;;;;;8.80;6.30;;;;;;;-144.99;61.28;52333.94;5062079;28;20250;-62
2021/07/02 10:02:55;;;;;;;10.33;5.97;;;;;;;-144.99;62.51;52338.03;5065862;28;20255;-62
2021/07/02 10:05:24;;;;;;;11.87;6.97;;;;;;;-144.99;63.27;52285.03;5062738;28;20682;-62
2021/07/02 10:07:58;;;;;;;7.30;5.67;;;;;;;-144.99;63.93;52293.19;5066947;28;21577;-62
2021/07/02 10:10:26;;;;;;;12.63;6.93;;;;;;;-144.99;63.52;52344.16;5063809;28;20654;-62
2021/07/02 10:12:54;;;;;;;13.63;6.50;;;;;;;-144.99;63.41;52331.91;5066682;28;20226;-62
2021/07/02 10:15:20;;;;;;;9.50;6.37;;;;;;;-144.99;64.37;52309.50;5066461;28;20651;-64
2021/07/02 10:17:47;;;;;;;11.80;7.47;;;;;;;-144.99;63.74;52278.91;5065624;28;20228;-64
2021/07/02 10:20:16;;;;;;;11.10;5.73;;;;;;;-144.99;63.55;52301.34;5066491;28;20451;-64
2021/07/02 10:22:46;;;;;;;9.83;6.70;;;;;;;-144.99;64.35;52307.47;5066412;28;20202;-65
2021/07/02 10:25:16;;;;;;;10.10;6.80;;;;;;;-144.99;62.88;52244.28;5064657;28;20307;-65
2021/07/02 10:27:43;;;;;;;8.43;6.07;;;;;;;-144.99;61.92;52256.50;5064374;28;20197;-63
2021/07/02 10:30:10;;;;;;;10.83;6.00;;;;;;;-144.99;61.34;52276.88;5059416;28;20265;-63
2021/07/02 10:32:38;;;;;;;10.43;5.33;;;;;;;-144.99;61.52;52248.34;5060163;28;20232;-63
2021/07/02 10:35:06;;;;;;;10.27;5.63;;;;;;;-144.99;59.08;52252.44;5060627;28;20211;-63
2021/07/02 10:37:35;;;;;;;8.57;6.07;;;;;;;-144.99;57.89;52219.81;5062611;28;20737;-63
2021/07/02 10:40:30;;;;;;;8.83;5.47;;;;;;;-144.99;59.76;52193.31;5064125;28;20249;-63
2021/07/02 10:43:15;;;;;;;12.30;5.38;;;;;;;-144.99;59.69;52276.88;4773739;28;10000530;-64
2021/07/02 10:46:10;;;;;;;11.93;6.30;;;;;;;-144.99;58.42;52256.50;5058616;28;20736;-63
2021/07/02 10:48:53;;;;;;;12.70;7.80;;;;;;;-144.99;58.43;52285.03;5053729;28;21692;-63
2021/07/02 10:51:59;;;;;;;8.30;5.90;;;;;;;-144.99;58.51;52321.72;5060827;28;20222;-62
2021/07/02 10:54:31;;;;;;;8.90;6.70;;;;;;;-144.99;57.62;52219.81;5061891;28;20223;-62
2021/07/02 10:57:09;;;;;;;9.00;5.33;;;;;;;-144.99;58.54;52293.19;5054207;28;20341;-63
2021/07/02 11:00:12;;;;;;;7.50;5.40;;;;;;;-144.99;58.00;52225.94;5061086;28;20232;-62
2021/07/02 11:02:40;;;;;;;10.33;5.20;;;;;;;-144.99;57.19;52278.91;4999107;28;20247;-62
2021/07/02 11:05:33;;;;;;;10.57;6.67;;;;;;;-144.99;57.60;52280.97;4994855;28;20248;-63
2021/07/02 11:08:00;;;;;;;11.60;5.30;;;;;;;-144.99;57.90;52232.03;5028894;28;20224;-63
2021/07/02 11:10:27;;;;;;;13.27;6.40;;;;;;;-144.99;57.36;52276.88;5056901;28;20224;-64